createdAt,value
2022-10-08T04:47:46.581Z,14.00
2022-10-08T04:50:13.545Z,13.90
2022-10-08T04:52:40.825Z,14.00
2022-10-08T04:55:08.331Z,14.10
2022-10-08T04:57:35.326Z,14.10
2022-10-08T05:00:19.138Z,14.10
2022-10-08T05:02:47.001Z,14.00
2022-10-08T05:05:15.152Z,14.00
2022-10-08T05:07:42.356Z,14.00
2022-10-08T05:10:09.597Z,14.00
2022-10-08T05:12:36.499Z,14.00
2022-10-08T05:15:03.441Z,14.00
2022-10-08T05:17:30.353Z,14.00
2022-10-08T05:19:57.233Z,14.00
2022-10-08T05:22:24.272Z,14.00
2022-10-08T05:24:51.116Z,14.00
2022-10-08T05:27:18.095Z,14.00
2022-10-08T05:29:44.957Z,14.00
2022-10-08T05:32:12.003Z,13.90
2022-10-08T05:34:38.945Z,14.00
2022-10-08T05:37:05.979Z,13.90
2022-10-08T05:39:32.833Z,13.90
2022-10-08T05:41:59.835Z,13.90
2022-10-08T05:44:26.622Z,13.80
2022-10-08T05:46:53.512Z,13.80
2022-10-08T05:49:22.656Z,13.80
2022-10-08T05:51:50.524Z,13.80
2022-10-08T05:54:18.497Z,13.80
2022-10-08T05:56:45.713Z,13.80
2022-10-08T05:59:21.363Z,13.80
2022-10-08T06:01:49.415Z,13.90
2022-10-08T06:04:18.312Z,13.80
2022-10-08T06:06:45.851Z,13.80
2022-10-08T06:09:15.184Z,13.80
2022-10-08T06:11:42.676Z,13.80
2022-10-08T06:14:12.062Z,13.70
2022-10-08T06:16:39.596Z,13.70
2022-10-08T06:19:07.588Z,13.70
2022-10-08T06:21:35.130Z,13.70
2022-10-08T06:24:04.849Z,13.60
2022-10-08T06:26:37.747Z,13.60
2022-10-08T06:29:06.239Z,13.70
2022-10-08T06:31:34.805Z,13.60
2022-10-08T06:34:05.117Z,13.50
2022-10-08T06:36:32.883Z,13.50
2022-10-08T06:39:02.256Z,13.50
2022-10-08T06:41:30.537Z,13.50
2022-10-08T06:43:57.534Z,13.50
2022-10-08T06:46:24.618Z,13.60
2022-10-08T06:48:51.476Z,13.60
2022-10-08T06:51:19.486Z,13.70
2022-10-08T06:53:52.648Z,13.80
2022-10-08T06:56:19.868Z,13.80
2022-10-08T06:58:47.634Z,13.80
2022-10-08T07:01:20.171Z,13.80
2022-10-08T07:03:51.448Z,13.80
2022-10-08T07:06:19.024Z,13.80
2022-10-08T07:08:46.041Z,13.70
2022-10-08T07:11:17.948Z,13.80
2022-10-08T07:13:45.072Z,13.80
2022-10-08T07:16:20.731Z,13.80
2022-10-08T07:18:50.371Z,13.80
2022-10-08T07:21:19.471Z,13.90
2022-10-08T07:23:46.930Z,13.90
2022-10-08T07:26:15.976Z,14.00
2022-10-08T07:28:54.784Z,14.10
2022-10-08T07:31:24.518Z,14.20
2022-10-08T07:33:52.565Z,14.30
2022-10-08T07:36:21.958Z,14.30
2022-10-08T07:38:56.711Z,14.30
2022-10-08T07:41:24.064Z,14.30
2022-10-08T07:43:52.649Z,14.40
2022-10-08T07:46:20.097Z,14.40
2022-10-08T07:48:47.328Z,14.50
2022-10-08T07:51:16.953Z,14.60
2022-10-08T07:53:44.544Z,14.70
2022-10-08T07:56:13.544Z,14.70
2022-10-08T07:58:40.979Z,14.70
2022-10-08T08:01:11.456Z,14.70
2022-10-08T08:03:38.432Z,14.80
2022-10-08T08:06:09.308Z,14.80
2022-10-08T08:08:37.652Z,14.90
2022-10-08T08:11:06.439Z,15.10
2022-10-08T08:13:37.249Z,15.20
2022-10-08T08:16:06.922Z,15.30
2022-10-08T08:18:36.860Z,15.40
2022-10-08T08:21:12.577Z,15.50
2022-10-08T08:23:42.170Z,15.50
2022-10-08T08:26:14.300Z,15.70
2022-10-08T08:28:41.438Z,15.80
2022-10-08T08:31:12.342Z,16.00
2022-10-08T08:33:39.907Z,16.10
2022-10-08T08:36:07.212Z,16.10
2022-10-08T08:38:40.131Z,16.10
2022-10-08T08:41:42.130Z,16.10
2022-10-08T08:44:12.694Z,16.00
2022-10-08T08:46:43.474Z,15.90
2022-10-08T08:49:54.736Z,15.90
2022-10-08T08:52:28.720Z,15.90
2022-10-08T08:54:55.799Z,16.10
2022-10-08T08:57:32.393Z,16.30
2022-10-08T09:00:16.169Z,16.40
2022-10-08T09:03:04.180Z,16.50
2022-10-08T09:05:35.156Z,16.60
2022-10-08T09:08:41.059Z,16.70
2022-10-08T09:11:14.388Z,16.70
2022-10-08T09:13:46.717Z,16.80
2022-10-08T09:16:14.706Z,16.80
2022-10-08T09:18:47.359Z,16.70
2022-10-08T09:21:14.721Z,16.90
2022-10-08T09:23:42.187Z,17.00
2022-10-08T09:26:15.505Z,17.10
2022-10-08T09:28:48.563Z,17.10
2022-10-08T09:31:26.483Z,17.10
2022-10-08T09:34:10.655Z,17.10
2022-10-08T09:36:54.109Z,17.30
2022-10-08T09:39:26.623Z,17.20
2022-10-08T09:42:17.766Z,17.10
2022-10-08T09:44:48.693Z,17.20
2022-10-08T09:47:20.770Z,17.40
2022-10-08T09:50:19.196Z,17.60
2022-10-08T09:52:50.435Z,17.80
2022-10-08T09:55:22.589Z,18.00
2022-10-08T09:57:54.392Z,18.30
2022-10-08T10:00:25.880Z,18.50
2022-10-08T10:02:57.557Z,18.50
2022-10-08T10:05:33.224Z,18.60
2022-10-08T10:08:00.529Z,18.50
2022-10-08T10:10:29.167Z,18.20
2022-10-08T10:13:05.711Z,18.10
2022-10-08T10:15:39.563Z,18.30
2022-10-08T10:18:13.522Z,18.20
2022-10-08T10:20:48.233Z,18.20
2022-10-08T10:23:21.052Z,18.10
2022-10-08T10:26:11.361Z,17.90
2022-10-08T10:28:57.629Z,17.80
2022-10-08T10:31:52.605Z,17.60
2022-10-08T10:34:25.332Z,17.40
2022-10-08T10:36:57.373Z,17.30
2022-10-08T10:40:03.380Z,17.20
2022-10-08T10:43:01.232Z,17.40
2022-10-08T10:45:39.406Z,17.80
2022-10-08T10:48:08.249Z,18.00
2022-10-08T10:50:44.881Z,18.00
2022-10-08T10:53:52.253Z,18.00
2022-10-08T10:56:21.625Z,18.00
2022-10-08T10:59:22.885Z,18.00
2022-10-08T11:02:02.971Z,17.80
2022-10-08T11:05:03.197Z,17.60
2022-10-08T11:07:42.701Z,17.60
2022-10-08T11:10:31.982Z,17.60
2022-10-08T11:13:22.639Z,17.70
2022-10-08T11:16:23.108Z,18.10
2022-10-08T11:19:02.202Z,18.50
2022-10-08T11:21:46.357Z,18.90
2022-10-08T11:24:34.699Z,19.10
2022-10-08T11:27:16.417Z,19.20
2022-10-08T11:29:55.697Z,19.20
2022-10-08T11:32:23.154Z,19.20
2022-10-08T11:34:57.803Z,19.00
2022-10-08T11:37:24.586Z,19.10
2022-10-08T11:40:03.560Z,19.10
2022-10-08T11:42:48.541Z,19.20
2022-10-08T11:45:31.367Z,19.30
2022-10-08T11:48:22.548Z,19.20
2022-10-08T11:50:49.515Z,19.20
2022-10-08T11:53:21.547Z,19.30
2022-10-08T11:55:59.050Z,19.40
2022-10-08T11:58:30.451Z,19.50
2022-10-08T12:01:08.142Z,19.40
2022-10-08T12:03:41.039Z,19.40
2022-10-08T12:06:28.203Z,19.50
2022-10-08T12:08:59.575Z,19.60
2022-10-08T12:11:32.750Z,19.70
2022-10-08T12:14:12.028Z,19.80
2022-10-08T12:16:48.324Z,19.80
2022-10-08T12:19:36.085Z,19.70
2022-10-08T12:22:25.374Z,19.80
2022-10-08T12:24:58.341Z,20.00
2022-10-08T12:27:33.526Z,20.00
2022-10-08T12:30:12.108Z,20.00
2022-10-08T12:32:41.816Z,20.00
2022-10-08T12:35:37.128Z,20.00
2022-10-08T12:38:30.249Z,19.90
2022-10-08T12:41:19.802Z,19.80
2022-10-08T12:44:25.346Z,19.80
2022-10-08T12:46:57.761Z,19.70
2022-10-08T12:49:37.353Z,19.60
2022-10-08T12:52:10.441Z,19.50
2022-10-08T12:54:40.597Z,19.50
2022-10-08T12:57:11.213Z,19.60
2022-10-08T12:59:40.836Z,19.70
2022-10-08T13:02:25.645Z,19.70
2022-10-08T13:04:52.521Z,19.80
2022-10-08T13:07:25.547Z,19.70
2022-10-08T13:09:57.180Z,19.70
2022-10-08T13:12:24.354Z,19.80
2022-10-08T13:15:08.791Z,19.80
2022-10-08T13:17:36.983Z,19.70
2022-10-08T13:20:18.239Z,19.60
2022-10-08T13:22:45.229Z,19.50
2022-10-08T13:25:32.316Z,19.50
2022-10-08T13:28:41.885Z,19.50
2022-10-08T13:31:23.752Z,19.50
2022-10-08T13:33:51.481Z,19.50
2022-10-08T13:36:23.261Z,19.40
2022-10-08T13:38:50.353Z,19.30
2022-10-08T13:41:25.256Z,19.30
2022-10-08T13:43:52.293Z,19.40
2022-10-08T13:46:19.205Z,19.40
2022-10-08T13:48:46.140Z,19.30
2022-10-08T13:51:12.971Z,19.30
2022-10-08T13:53:42.236Z,19.20
2022-10-08T13:56:09.215Z,19.20
2022-10-08T13:58:36.083Z,19.10
2022-10-08T14:01:03.004Z,19.00
2022-10-08T14:03:30.023Z,18.90
2022-10-08T14:05:57.709Z,18.80
2022-10-08T14:08:28.299Z,18.70
2022-10-08T14:10:58.985Z,18.70
2022-10-08T14:13:26.657Z,18.60
2022-10-08T14:15:54.135Z,18.60
2022-10-08T14:18:21.170Z,18.60
2022-10-08T14:20:51.128Z,18.50
2022-10-08T14:23:19.092Z,18.40
2022-10-08T14:25:46.546Z,18.30
2022-10-08T14:28:13.438Z,18.30
2022-10-08T14:30:40.289Z,18.30
2022-10-08T14:33:11.140Z,18.10
2022-10-08T14:35:38.576Z,18.10
2022-10-08T14:38:05.472Z,18.00
2022-10-08T14:40:32.509Z,18.00
2022-10-08T14:42:59.852Z,17.90
2022-10-08T14:45:26.729Z,17.90
2022-10-08T14:47:53.609Z,17.90
2022-10-08T14:50:20.662Z,17.90
2022-10-08T14:52:47.860Z,17.80
2022-10-08T14:55:15.441Z,17.70
2022-10-08T14:57:42.315Z,17.70
2022-10-08T15:00:10.038Z,17.70
2022-10-08T15:02:36.906Z,17.60
2022-10-08T15:05:04.215Z,17.40
2022-10-08T15:07:31.135Z,17.40
2022-10-08T15:09:58.563Z,17.30
2022-10-08T15:12:25.522Z,17.20
2022-10-08T15:14:52.406Z,17.10
2022-10-08T15:17:19.430Z,17.00
2022-10-08T15:19:46.953Z,17.00
2022-10-08T15:22:13.792Z,16.90
2022-10-08T15:24:41.464Z,16.80
2022-10-08T15:27:08.370Z,16.90
2022-10-08T15:29:36.102Z,16.80
2022-10-08T15:32:03.163Z,16.70
2022-10-08T15:34:30.043Z,16.70
2022-10-08T15:36:56.785Z,16.60
2022-10-08T15:39:23.755Z,16.60
2022-10-08T15:41:52.729Z,16.60
2022-10-08T15:44:25.914Z,16.60
2022-10-08T15:47:05.960Z,16.60
2022-10-08T15:49:35.365Z,16.60
2022-10-08T15:52:03.538Z,16.50
2022-10-08T15:54:30.627Z,16.50
2022-10-08T15:56:57.712Z,16.40
2022-10-08T15:59:24.603Z,16.30
2022-10-08T16:01:51.404Z,16.30
2022-10-08T16:04:18.411Z,16.30
2022-10-08T16:06:46.396Z,16.40
2022-10-08T16:09:19.107Z,16.30
2022-10-08T16:11:47.133Z,16.30
2022-10-08T16:14:19.619Z,16.20
2022-10-08T16:16:47.116Z,16.20
2022-10-08T16:19:16.566Z,16.10
2022-10-08T16:21:45.319Z,16.00
2022-10-08T16:24:12.732Z,16.00
2022-10-08T16:26:40.822Z,16.00
2022-10-08T16:29:10.886Z,15.90
2022-10-08T16:31:39.418Z,15.80
2022-10-08T16:34:35.436Z,15.80
2022-10-08T16:37:02.858Z,15.80
2022-10-08T16:39:29.692Z,15.80
2022-10-08T16:41:56.633Z,15.70
2022-10-08T16:44:23.679Z,15.60
2022-10-08T16:46:52.829Z,15.70
2022-10-08T16:49:26.336Z,15.60
2022-10-08T16:52:05.168Z,15.60
2022-10-08T16:54:33.013Z,15.50
2022-10-08T16:56:59.947Z,15.50
2022-10-08T16:59:28.346Z,15.50
2022-10-08T17:01:58.019Z,15.40
2022-10-08T17:04:27.710Z,15.40
2022-10-08T17:06:57.000Z,15.40
2022-10-08T17:09:24.192Z,15.30
2022-10-08T17:11:52.120Z,15.30
2022-10-08T17:14:19.089Z,15.20
2022-10-08T17:16:46.220Z,15.20
2022-10-08T17:19:13.709Z,15.30
2022-10-08T17:21:40.855Z,15.30
2022-10-08T17:24:08.146Z,15.20
2022-10-08T17:26:35.301Z,15.20
2022-10-08T17:29:04.949Z,15.20
2022-10-08T17:31:32.906Z,15.10
2022-10-08T17:34:01.006Z,15.10
2022-10-08T17:36:30.409Z,15.00
2022-10-08T17:38:59.774Z,15.10
2022-10-08T17:41:29.132Z,15.00
2022-10-08T17:43:57.974Z,15.00
2022-10-08T17:46:30.338Z,15.00
2022-10-08T17:48:57.672Z,14.90
2022-10-08T17:51:27.134Z,14.90
2022-10-08T17:54:04.272Z,14.90
2022-10-08T17:56:31.574Z,14.90
2022-10-08T17:58:59.234Z,14.80
2022-10-08T18:01:28.800Z,14.80
2022-10-08T18:04:03.841Z,14.80
2022-10-08T18:06:31.835Z,14.80
2022-10-08T18:09:00.799Z,14.70
2022-10-08T18:11:29.684Z,14.70
2022-10-08T18:13:56.668Z,14.60
2022-10-08T18:16:25.320Z,14.60
2022-10-08T18:18:52.396Z,14.60
2022-10-08T18:21:20.021Z,14.50
2022-10-08T18:23:48.155Z,14.50
2022-10-08T18:26:26.635Z,14.40
2022-10-08T18:28:55.688Z,14.50
2022-10-08T18:31:25.320Z,14.40
2022-10-08T18:33:58.049Z,14.40
2022-10-08T18:36:29.290Z,14.30
2022-10-08T18:39:12.122Z,14.30
2022-10-08T18:41:42.020Z,14.30
2022-10-08T18:44:12.921Z,14.20
2022-10-08T18:46:40.008Z,14.30
2022-10-08T18:49:07.185Z,14.20
2022-10-08T18:51:35.413Z,14.10
2022-10-08T18:54:02.444Z,14.10
2022-10-08T18:56:35.497Z,14.10
2022-10-08T18:59:05.976Z,14.10
2022-10-08T19:01:35.729Z,14.00
2022-10-08T19:04:04.796Z,14.00
2022-10-08T19:06:35.411Z,13.90
2022-10-08T19:09:03.298Z,13.90
2022-10-08T19:11:37.703Z,13.90
2022-10-08T19:14:10.171Z,13.90
2022-10-08T19:16:38.411Z,13.90
2022-10-08T19:19:09.512Z,13.80
2022-10-08T19:21:38.678Z,13.80
2022-10-08T19:24:07.751Z,13.80
2022-10-08T19:26:34.893Z,13.80
2022-10-08T19:29:01.807Z,13.70
2022-10-08T19:31:31.810Z,13.80
2022-10-08T19:34:01.220Z,13.80
2022-10-08T19:36:30.948Z,13.80
2022-10-08T19:39:00.613Z,13.70
2022-10-08T19:41:29.048Z,13.80
2022-10-08T19:43:57.667Z,13.80
2022-10-08T19:46:26.191Z,13.90
2022-10-08T19:49:01.354Z,13.90
2022-10-08T19:51:29.692Z,13.90
2022-10-08T19:53:58.118Z,13.90
2022-10-08T19:56:25.616Z,13.90
2022-10-08T19:58:53.374Z,13.90
2022-10-08T20:01:23.119Z,13.90
2022-10-08T20:03:54.928Z,13.90
2022-10-08T20:06:24.836Z,13.90
2022-10-08T20:08:57.984Z,13.90
2022-10-08T20:11:25.789Z,13.90
2022-10-08T20:13:54.027Z,13.90
2022-10-08T20:16:41.326Z,13.90
2022-10-08T20:19:14.872Z,13.90
2022-10-08T20:21:41.790Z,13.80
2022-10-08T20:24:08.619Z,13.80
2022-10-08T20:26:38.095Z,13.90
2022-10-08T20:29:11.530Z,13.80
2022-10-08T20:31:44.115Z,13.80
2022-10-08T20:34:17.911Z,13.80
2022-10-08T20:36:46.142Z,13.80
2022-10-08T20:39:14.449Z,13.80
2022-10-08T20:41:42.192Z,13.80
2022-10-08T20:44:09.499Z,13.80
2022-10-08T20:46:37.668Z,13.70
2022-10-08T20:49:05.449Z,13.80
2022-10-08T20:51:33.626Z,13.80
2022-10-08T20:54:07.068Z,13.80
2022-10-08T20:56:39.802Z,13.70
2022-10-08T20:59:09.306Z,13.70
2022-10-08T21:01:38.324Z,13.70
2022-10-08T21:04:06.819Z,13.60
2022-10-08T21:06:45.874Z,13.60
2022-10-08T21:09:14.774Z,13.60
2022-10-08T21:11:41.719Z,13.60
2022-10-08T21:14:09.787Z,13.60
2022-10-08T21:16:40.171Z,13.50
2022-10-08T21:19:15.886Z,13.50
2022-10-08T21:21:42.729Z,13.60
2022-10-08T21:24:10.168Z,13.50
2022-10-08T21:26:39.185Z,13.50
2022-10-08T21:29:08.568Z,13.50
2022-10-08T21:31:38.364Z,13.60
2022-10-08T21:34:06.237Z,13.50
2022-10-08T21:36:39.332Z,13.50
2022-10-08T21:39:09.044Z,13.50
2022-10-08T21:41:37.144Z,13.50
2022-10-08T21:44:06.326Z,13.50
2022-10-08T21:46:37.383Z,13.50
2022-10-08T21:49:12.227Z,13.50
2022-10-08T21:51:39.337Z,13.50
2022-10-08T21:54:07.468Z,13.40
2022-10-08T21:56:36.646Z,13.40
2022-10-08T21:59:05.561Z,13.40
2022-10-08T22:01:49.780Z,13.40
2022-10-08T22:04:19.338Z,13.40
2022-10-08T22:06:52.012Z,13.40
2022-10-08T22:09:28.146Z,13.40
2022-10-08T22:11:56.746Z,13.40
2022-10-08T22:14:23.949Z,13.40
2022-10-08T22:16:51.021Z,13.40
2022-10-08T22:19:18.102Z,13.30
2022-10-08T22:21:45.422Z,13.30
2022-10-08T22:24:12.974Z,13.20
2022-10-08T22:26:43.474Z,13.30
2022-10-08T22:29:10.637Z,13.30
2022-10-08T22:31:38.147Z,13.30
2022-10-08T22:34:05.675Z,13.30
2022-10-08T22:36:33.314Z,13.40
2022-10-08T22:39:00.307Z,13.30
2022-10-08T22:41:29.587Z,13.40
2022-10-08T22:43:57.126Z,13.30
2022-10-08T22:46:29.383Z,13.30
2022-10-08T22:49:01.242Z,13.20
2022-10-08T22:51:29.109Z,13.30
2022-10-08T22:53:56.948Z,13.30
2022-10-08T22:58:56.119Z,13.30
2022-10-08T23:06:27.750Z,13.30
2022-10-08T23:09:03.318Z,12.90
2022-10-08T23:16:28.734Z,13.20
